createdAt,value
2019-01-10T00:02:03.893Z,2.10
2019-01-10T00:04:34.373Z,2.10
2019-01-10T00:07:06.699Z,2.10
2019-01-10T00:09:38.368Z,2.20
2019-01-10T00:12:09.487Z,2.10
2019-01-10T00:14:40.334Z,2.10
2019-01-10T00:17:12.447Z,2.10
2019-01-10T00:19:43.296Z,2.00
2019-01-10T00:22:14.191Z,1.90
2019-01-10T00:24:46.009Z,2.00
2019-01-10T00:27:17.253Z,1.90
2019-01-10T00:29:47.977Z,1.80
2019-01-10T00:32:19.968Z,1.80
2019-01-10T00:34:52.238Z,1.70
2019-01-10T00:37:23.327Z,1.80
2019-01-10T00:39:53.811Z,1.90
2019-01-10T00:42:25.013Z,1.90
2019-01-10T00:44:55.530Z,1.90
2019-01-10T00:47:25.893Z,1.80
2019-01-10T00:49:57.291Z,1.80
2019-01-10T00:52:29.011Z,1.80
2019-01-10T00:54:59.660Z,1.80
2019-01-10T00:57:30.376Z,1.80
2019-01-10T01:00:01.051Z,1.90
2019-01-10T01:02:31.463Z,2.00
2019-01-10T01:05:02.154Z,1.90
2019-01-10T01:07:32.608Z,1.70
2019-01-10T01:10:03.041Z,1.70
2019-01-10T01:12:33.400Z,1.70
2019-01-10T01:15:04.079Z,1.50
2019-01-10T01:17:34.529Z,1.40
2019-01-10T01:20:07.172Z,1.40
2019-01-10T01:22:37.809Z,1.30
2019-01-10T01:25:09.620Z,1.40
2019-01-10T01:27:40.695Z,1.40
2019-01-10T01:30:15.392Z,1.30
2019-01-10T01:32:46.205Z,1.40
2019-01-10T01:35:17.918Z,1.30
2019-01-10T01:37:48.952Z,1.30
2019-01-10T01:40:21.748Z,1.40
2019-01-10T01:42:52.843Z,1.60
2019-01-10T01:45:23.424Z,1.50
2019-01-10T01:47:53.811Z,1.50
2019-01-10T01:50:25.595Z,1.40
2019-01-10T01:52:56.455Z,1.50
2019-01-10T01:55:27.164Z,1.50
2019-01-10T01:57:57.888Z,1.50
2019-01-10T02:00:28.870Z,1.50
2019-01-10T02:02:59.743Z,1.40
2019-01-10T02:05:30.591Z,1.50
2019-01-10T02:08:01.448Z,1.40
2019-01-10T02:10:32.468Z,1.10
2019-01-10T02:13:03.288Z,1.10
2019-01-10T02:15:34.018Z,1.10
2019-01-10T02:18:04.707Z,1.20
2019-01-10T02:20:37.174Z,1.30
2019-01-10T02:23:07.727Z,1.30
2019-01-10T02:25:41.252Z,1.20
2019-01-10T02:28:11.816Z,1.20
2019-01-10T02:30:42.616Z,1.10
2019-01-10T02:33:13.785Z,1.10
2019-01-10T02:35:44.527Z,1.20
2019-01-10T02:38:15.571Z,1.20
2019-01-10T02:40:46.470Z,1.30
2019-01-10T02:43:26.309Z,1.30
2019-01-10T02:45:50.628Z,1.30
2019-01-10T02:48:20.890Z,1.10
2019-01-10T02:50:51.715Z,1.00
2019-01-10T02:53:22.374Z,1.10
2019-01-10T02:55:52.895Z,1.30
2019-01-10T02:58:23.523Z,1.20
2019-01-10T03:00:54.235Z,1.10
2019-01-10T03:03:24.926Z,1.00
2019-01-10T03:05:55.330Z,1.10
2019-01-10T03:08:25.767Z,0.90
2019-01-10T03:10:56.331Z,1.00
2019-01-10T03:13:36.276Z,1.00
2019-01-10T03:15:59.435Z,0.90
2019-01-10T03:18:30.176Z,0.90
2019-01-10T03:21:00.695Z,0.90
2019-01-10T03:23:31.296Z,0.90
2019-01-10T03:26:02.322Z,0.90
2019-01-10T03:28:33.372Z,1.00
2019-01-10T03:31:04.238Z,0.90
2019-01-10T03:33:34.943Z,0.90
2019-01-10T03:36:06.667Z,1.00
2019-01-10T03:38:37.095Z,0.90
2019-01-10T03:41:07.935Z,1.00
2019-01-10T03:43:47.043Z,1.00
2019-01-10T03:46:11.333Z,1.10
2019-01-10T03:48:42.193Z,1.00
2019-01-10T03:51:12.742Z,1.10
2019-01-10T03:53:43.111Z,0.90
2019-01-10T03:56:13.842Z,1.00
2019-01-10T03:58:44.607Z,1.10
2019-01-10T04:01:15.772Z,1.10
2019-01-10T04:03:46.598Z,1.10
2019-01-10T04:06:17.412Z,1.10
2019-01-10T04:08:48.803Z,1.10
2019-01-10T04:11:19.762Z,1.10
2019-01-10T04:13:57.261Z,1.00
2019-01-10T04:16:22.790Z,1.00
2019-01-10T04:18:53.773Z,1.10
2019-01-10T04:21:25.160Z,1.10
2019-01-10T04:23:55.915Z,1.10
2019-01-10T04:26:26.933Z,1.10
2019-01-10T04:28:57.697Z,1.10
2019-01-10T04:31:28.326Z,0.90
2019-01-10T04:33:59.267Z,1.00
2019-01-10T04:36:30.319Z,1.00
2019-01-10T04:39:01.097Z,1.10
2019-01-10T04:41:32.052Z,1.00
2019-01-10T04:44:07.291Z,1.10
2019-01-10T04:46:34.997Z,1.20
2019-01-10T04:49:06.056Z,1.10
2019-01-10T04:51:36.804Z,1.10
2019-01-10T04:54:07.498Z,1.00
2019-01-10T04:56:38.304Z,1.00
2019-01-10T04:59:11.944Z,1.20
2019-01-10T05:01:42.297Z,1.20
2019-01-10T05:04:13.030Z,1.30
2019-01-10T05:06:46.277Z,1.30
2019-01-10T05:09:17.008Z,1.40
2019-01-10T05:11:47.715Z,1.30
2019-01-10T05:14:19.661Z,1.30
2019-01-10T05:16:50.696Z,1.20
2019-01-10T05:19:22.222Z,1.30
2019-01-10T05:21:53.103Z,1.30
2019-01-10T05:24:23.742Z,1.30
2019-01-10T05:26:54.099Z,1.30
2019-01-10T05:29:25.342Z,1.10
2019-01-10T05:31:55.726Z,1.30
2019-01-10T05:34:26.757Z,1.30
2019-01-10T05:36:57.472Z,1.30
2019-01-10T05:39:28.196Z,1.30
2019-01-10T05:41:58.802Z,1.40
2019-01-10T05:44:30.531Z,1.30
2019-01-10T05:47:02.185Z,1.40
2019-01-10T05:49:35.514Z,1.40
2019-01-10T05:52:06.220Z,1.50
2019-01-10T05:54:37.479Z,1.40
2019-01-10T05:57:07.971Z,1.40
2019-01-10T05:59:39.127Z,1.50
2019-01-10T06:02:09.454Z,1.50
2019-01-10T06:04:39.983Z,1.40
2019-01-10T06:07:10.863Z,1.30
2019-01-10T06:09:41.899Z,1.40
2019-01-10T06:12:12.187Z,1.40
2019-01-10T06:14:43.029Z,1.40
2019-01-10T06:17:14.038Z,1.50
2019-01-10T06:19:44.862Z,1.50
2019-01-10T06:22:15.192Z,1.60
2019-01-10T06:24:45.721Z,1.70
2019-01-10T06:27:16.364Z,1.80
2019-01-10T06:29:46.974Z,1.80
2019-01-10T06:32:17.529Z,1.70
2019-01-10T06:34:48.438Z,1.70
2019-01-10T06:37:19.124Z,1.70
2019-01-10T06:39:49.576Z,1.70
2019-01-10T06:42:20.296Z,1.70
2019-01-10T06:44:51.996Z,1.60
2019-01-10T06:47:23.066Z,1.60
2019-01-10T06:49:54.306Z,1.60
2019-01-10T06:52:24.814Z,1.60
2019-01-10T06:54:56.710Z,1.40
2019-01-10T06:57:27.937Z,1.50
2019-01-10T07:00:00.165Z,1.60
2019-01-10T07:02:31.748Z,1.50
2019-01-10T07:05:02.539Z,1.40
2019-01-10T07:07:32.927Z,1.40
2019-01-10T07:10:03.963Z,1.40
2019-01-10T07:12:34.576Z,1.50
2019-01-10T07:15:05.410Z,1.40
2019-01-10T07:17:36.045Z,1.40
2019-01-10T07:20:07.426Z,1.50
2019-01-10T07:22:43.606Z,1.60
2019-01-10T07:25:14.342Z,1.60
2019-01-10T07:27:44.761Z,1.50
2019-01-10T07:30:18.729Z,1.60
2019-01-10T07:32:49.497Z,1.60
2019-01-10T07:35:20.451Z,1.50
2019-01-10T07:37:56.101Z,1.50
2019-01-10T07:40:27.694Z,1.50
2019-01-10T07:42:58.522Z,1.60
2019-01-10T07:45:29.999Z,1.60
2019-01-10T07:48:01.060Z,1.60
2019-01-10T07:50:39.167Z,1.60
2019-01-10T07:53:11.562Z,1.70
2019-01-10T07:55:43.189Z,1.80
2019-01-10T07:58:14.405Z,1.80
2019-01-10T08:00:45.260Z,1.80
2019-01-10T08:03:16.301Z,1.90
2019-01-10T08:05:47.029Z,1.90
2019-01-10T08:08:17.940Z,1.90
2019-01-10T08:10:48.772Z,2.00
2019-01-10T08:13:19.840Z,2.10
2019-01-10T08:15:50.764Z,2.10
2019-01-10T08:18:21.294Z,2.20
2019-01-10T08:20:51.978Z,2.00
2019-01-10T08:23:22.983Z,2.10
2019-01-10T08:25:54.377Z,2.20
2019-01-10T08:28:24.710Z,2.20
2019-01-10T08:30:55.693Z,2.20
2019-01-10T08:33:26.092Z,2.10
2019-01-10T08:36:20.136Z,2.00
2019-01-10T08:38:50.124Z,2.10
2019-01-10T08:41:20.680Z,2.10
2019-01-10T08:43:51.389Z,2.10
2019-01-10T08:46:22.532Z,2.00
2019-01-10T08:48:53.354Z,1.80
2019-01-10T08:51:24.393Z,1.80
2019-01-10T08:53:55.030Z,1.70
2019-01-10T08:56:26.049Z,1.60
2019-01-10T08:58:56.845Z,1.60
2019-01-10T09:01:27.513Z,1.50
2019-01-10T09:03:59.424Z,1.60
2019-01-10T09:06:29.594Z,1.50
2019-01-10T09:09:01.161Z,1.50
2019-01-10T09:11:32.389Z,1.50
2019-01-10T09:14:04.789Z,1.50
2019-01-10T09:16:35.785Z,1.50
2019-01-10T09:19:06.635Z,1.40
2019-01-10T09:21:37.821Z,1.50
2019-01-10T09:24:08.177Z,1.50
2019-01-10T09:26:38.572Z,1.60
2019-01-10T09:29:08.961Z,1.50
2019-01-10T09:31:41.690Z,1.50
2019-01-10T09:34:12.372Z,1.50
2019-01-10T09:36:42.923Z,1.60
2019-01-10T09:39:14.056Z,1.60
2019-01-10T09:41:44.585Z,1.50
2019-01-10T09:44:15.153Z,1.60
2019-01-10T09:46:46.695Z,1.60
2019-01-10T09:49:17.498Z,1.60
2019-01-10T09:51:48.308Z,1.60
2019-01-10T09:54:19.016Z,1.70
2019-01-10T09:56:49.735Z,1.70
2019-01-10T09:59:20.426Z,1.70
2019-01-10T10:01:51.813Z,1.60
2019-01-10T10:04:23.196Z,1.60
2019-01-10T10:06:54.562Z,1.50
2019-01-10T10:09:32.826Z,1.60
2019-01-10T10:12:07.306Z,1.70
2019-01-10T10:14:42.643Z,1.80
2019-01-10T10:17:15.538Z,1.80
2019-01-10T10:19:46.057Z,1.60
2019-01-10T10:22:16.797Z,1.60
2019-01-10T10:24:49.422Z,1.60
2019-01-10T10:27:20.441Z,1.60
2019-01-10T10:29:51.361Z,1.60
2019-01-10T10:32:22.155Z,1.50
2019-01-10T10:34:52.674Z,1.30
2019-01-10T10:37:24.346Z,1.30
2019-01-10T10:39:54.788Z,1.50
2019-01-10T10:42:25.936Z,1.50
2019-01-10T10:44:56.548Z,1.60
2019-01-10T10:47:31.094Z,1.60
2019-01-10T10:50:02.136Z,1.50
2019-01-10T10:52:33.093Z,1.60
2019-01-10T10:55:03.893Z,1.50
2019-01-10T10:57:34.854Z,1.60
2019-01-10T11:00:06.861Z,1.70
2019-01-10T11:02:37.622Z,1.80
2019-01-10T11:05:09.252Z,1.90
2019-01-10T11:07:40.033Z,1.90
2019-01-10T11:10:12.632Z,1.90
2019-01-10T11:12:43.630Z,1.90
2019-01-10T11:15:14.679Z,1.90
2019-01-10T11:17:45.740Z,1.90
2019-01-10T11:20:19.115Z,1.90
2019-01-10T11:22:51.578Z,1.90
2019-01-10T11:25:24.686Z,1.90
2019-01-10T11:27:55.466Z,2.00
2019-01-10T11:30:29.153Z,2.00
2019-01-10T11:33:00.252Z,2.00
2019-01-10T11:35:31.232Z,2.10
2019-01-10T11:38:02.043Z,2.10
2019-01-10T11:40:33.122Z,2.10
2019-01-10T11:43:03.760Z,2.00
2019-01-10T11:45:34.789Z,2.10
2019-01-10T11:48:05.489Z,2.20
2019-01-10T11:50:37.016Z,2.10
2019-01-10T11:53:07.703Z,2.10
2019-01-10T11:55:38.375Z,2.10
2019-01-10T11:58:09.839Z,2.00
2019-01-10T12:00:40.754Z,1.90
2019-01-10T12:03:11.589Z,1.90
2019-01-10T12:05:48.304Z,2.00
2019-01-10T12:08:18.101Z,2.10
2019-01-10T12:10:50.488Z,2.20
2019-01-10T12:13:21.221Z,2.30
2019-01-10T12:15:52.496Z,2.30
2019-01-10T12:18:23.817Z,2.30
2019-01-10T12:20:54.119Z,2.30
2019-01-10T12:23:24.898Z,2.20
2019-01-10T12:25:56.305Z,2.20
2019-01-10T12:28:27.250Z,2.10
2019-01-10T12:30:57.767Z,1.80
2019-01-10T12:33:30.112Z,1.60
2019-01-10T12:36:03.164Z,1.70
2019-01-10T12:38:36.226Z,1.80
2019-01-10T12:41:09.148Z,1.80
2019-01-10T12:43:40.712Z,1.80
2019-01-10T12:46:13.638Z,1.80
2019-01-10T12:48:47.106Z,1.80
2019-01-10T12:51:20.799Z,1.80
2019-01-10T12:53:53.580Z,1.80
2019-01-10T12:56:26.275Z,1.80
2019-01-10T12:58:58.085Z,1.70
2019-01-10T13:01:30.481Z,1.70
2019-01-10T13:04:03.679Z,1.70
2019-01-10T13:06:34.984Z,1.70
2019-01-10T13:09:10.199Z,1.70
2019-01-10T13:11:42.838Z,1.80
2019-01-10T13:14:15.482Z,1.80
2019-01-10T13:16:47.511Z,1.80
2019-01-10T13:19:20.033Z,1.60
2019-01-10T13:21:52.320Z,1.70
2019-01-10T13:24:24.954Z,1.70
2019-01-10T13:26:57.768Z,1.80
2019-01-10T13:29:29.671Z,1.90
2019-01-10T13:32:02.977Z,1.90
2019-01-10T13:34:36.305Z,1.80
2019-01-10T13:37:08.319Z,1.80
2019-01-10T13:39:40.592Z,1.80
2019-01-10T13:42:12.874Z,1.70
2019-01-10T13:44:45.480Z,1.70
2019-01-10T13:47:17.202Z,1.70
2019-01-10T13:49:49.959Z,1.80
2019-01-10T13:52:21.839Z,1.70
2019-01-10T13:54:54.557Z,1.80
2019-01-10T13:57:28.173Z,1.80
2019-01-10T14:00:01.885Z,1.70
2019-01-10T14:02:34.167Z,1.60
2019-01-10T14:05:10.573Z,1.60
2019-01-10T14:07:41.153Z,1.70
2019-01-10T14:10:13.867Z,1.70
2019-01-10T14:12:46.648Z,1.70
2019-01-10T14:15:28.209Z,1.60
2019-01-10T14:18:02.066Z,1.60
2019-01-10T14:20:34.850Z,1.70
2019-01-10T14:23:07.303Z,1.80
2019-01-10T14:25:40.128Z,1.70
2019-01-10T14:28:12.498Z,1.60
2019-01-10T14:30:44.402Z,1.70
2019-01-10T14:33:16.650Z,1.70
2019-01-10T14:35:49.710Z,1.70
2019-01-10T14:38:27.406Z,1.80
2019-01-10T14:41:04.515Z,2.00
2019-01-10T14:43:37.486Z,1.90
2019-01-10T14:46:10.640Z,1.80
2019-01-10T14:48:42.607Z,1.80
2019-01-10T14:51:14.454Z,1.70
2019-01-10T14:53:48.057Z,1.80
2019-01-10T14:56:20.673Z,1.80
2019-01-10T14:58:52.881Z,1.80
2019-01-10T15:01:24.927Z,1.90
2019-01-10T15:03:57.642Z,2.00
2019-01-10T15:06:29.178Z,2.00
2019-01-10T15:09:01.751Z,2.10
2019-01-10T15:11:35.471Z,2.10
2019-01-10T15:14:08.632Z,2.10
2019-01-10T15:16:41.481Z,2.00
2019-01-10T15:19:13.630Z,1.90
2019-01-10T15:21:45.836Z,1.90
2019-01-10T15:24:19.163Z,1.80
2019-01-10T15:26:51.300Z,1.60
2019-01-10T15:29:23.591Z,1.20
2019-01-10T15:31:55.889Z,0.80
2019-01-10T15:34:28.090Z,0.80
2019-01-10T15:37:00.835Z,0.60
2019-01-10T15:39:32.957Z,0.60
2019-01-10T15:42:05.222Z,0.40
2019-01-10T15:44:38.284Z,0.40
2019-01-10T15:47:11.238Z,0.20
2019-01-10T15:49:43.081Z,0.30
2019-01-10T15:52:15.564Z,0.30
2019-01-10T15:54:49.124Z,0.30
2019-01-10T15:57:22.349Z,0.30
2019-01-10T15:59:55.711Z,0.30
2019-01-10T16:02:29.441Z,0.30
2019-01-10T16:05:03.238Z,0.30
2019-01-10T16:07:36.999Z,0.30
2019-01-10T16:10:11.396Z,0.30
2019-01-10T16:12:44.592Z,0.30
2019-01-10T16:15:21.991Z,0.40
2019-01-10T16:17:56.551Z,0.50
2019-01-10T16:20:29.869Z,0.50
2019-01-10T16:23:03.129Z,0.60
2019-01-10T16:25:36.870Z,0.60
2019-01-10T16:28:10.632Z,0.70
2019-01-10T16:30:44.988Z,0.70
2019-01-10T16:33:18.367Z,0.70
2019-01-10T16:35:52.520Z,0.90
2019-01-10T16:38:26.467Z,0.80
2019-01-10T16:41:01.119Z,0.90
2019-01-10T16:43:33.959Z,0.80
2019-01-10T16:46:09.842Z,0.90
2019-01-10T16:48:43.605Z,1.00
2019-01-10T16:51:16.289Z,1.00
2019-01-10T16:53:50.234Z,1.10
2019-01-10T16:56:23.751Z,1.10
2019-01-10T16:58:57.133Z,1.10
2019-01-10T17:01:30.888Z,1.00
2019-01-10T17:04:04.963Z,0.90
2019-01-10T17:06:38.354Z,1.00
2019-01-10T17:09:17.575Z,0.90
2019-01-10T17:11:48.519Z,0.90
2019-01-10T17:14:21.880Z,1.00
2019-01-10T17:16:55.005Z,1.10
2019-01-10T17:19:28.414Z,1.20
2019-01-10T17:22:02.914Z,1.20
2019-01-10T17:24:36.248Z,1.30
2019-01-10T17:27:09.908Z,1.50
2019-01-10T17:29:44.400Z,1.50
2019-01-10T17:32:17.575Z,1.40
2019-01-10T17:34:53.367Z,1.40
2019-01-10T17:37:26.551Z,1.40
2019-01-10T17:40:01.617Z,1.40
2019-01-10T17:42:35.161Z,1.40
2019-01-10T17:45:13.805Z,1.40
2019-01-10T17:47:46.362Z,1.30
2019-01-10T17:50:21.150Z,1.20
2019-01-10T17:52:55.729Z,1.20
2019-01-10T17:55:29.768Z,1.00
2019-01-10T17:58:05.437Z,1.20
2019-01-10T18:00:39.281Z,1.30
2019-01-10T18:03:12.767Z,1.30
2019-01-10T18:05:46.341Z,1.20
2019-01-10T18:08:20.727Z,1.10
2019-01-10T18:10:54.227Z,1.10
2019-01-10T18:13:27.595Z,1.10
2019-01-10T18:16:03.390Z,1.20
2019-01-10T18:18:37.688Z,1.10
2019-01-10T18:21:14.961Z,1.00
2019-01-10T18:23:46.110Z,1.00
2019-01-10T18:26:20.717Z,1.00
2019-01-10T18:28:53.884Z,0.90
2019-01-10T18:31:27.992Z,0.90
2019-01-10T18:34:01.947Z,1.00
2019-01-10T18:36:37.076Z,1.00
2019-01-10T18:39:13.109Z,0.90
2019-01-10T18:41:48.206Z,0.80
2019-01-10T18:44:22.631Z,0.70
2019-01-10T18:46:57.151Z,0.70
2019-01-10T18:49:31.685Z,0.60
2019-01-10T18:52:05.296Z,0.60
2019-01-10T18:54:39.313Z,0.60
2019-01-10T18:57:12.510Z,0.60
2019-01-10T18:59:46.526Z,0.60
2019-01-10T19:02:20.261Z,0.70
2019-01-10T19:04:53.757Z,0.70
2019-01-10T19:07:29.106Z,0.70
2019-01-10T19:10:03.689Z,0.70
2019-01-10T19:12:42.715Z,0.70
2019-01-10T19:15:16.991Z,0.60
2019-01-10T19:17:52.229Z,0.60
2019-01-10T19:20:31.385Z,0.60
2019-01-10T19:23:06.633Z,0.70
2019-01-10T19:25:39.702Z,0.80
2019-01-10T19:28:14.466Z,0.80
2019-01-10T19:30:49.160Z,0.90
2019-01-10T19:33:25.283Z,0.90
2019-01-10T19:35:58.871Z,0.90
2019-01-10T19:38:33.509Z,0.80
2019-01-10T19:41:09.244Z,0.80
2019-01-10T19:43:42.805Z,0.90
2019-01-10T19:46:16.908Z,1.00
2019-01-10T19:48:50.109Z,1.00
2019-01-10T19:51:24.635Z,1.00
2019-01-10T19:53:56.656Z,1.00
2019-01-10T19:56:29.321Z,1.00
2019-01-10T19:59:03.318Z,1.00
2019-01-10T20:01:37.722Z,1.00
2019-01-10T20:04:10.113Z,1.10
2019-01-10T20:06:45.068Z,1.10
2019-01-10T20:09:19.838Z,1.20
2019-01-10T20:11:54.112Z,1.20
2019-01-10T20:14:28.454Z,1.30
2019-01-10T20:17:02.283Z,1.20
2019-01-10T20:19:35.545Z,1.30
2019-01-10T20:22:10.213Z,1.40
2019-01-10T20:24:44.428Z,1.50
2019-01-10T20:27:18.665Z,1.30
2019-01-10T20:29:54.645Z,1.30
2019-01-10T20:32:29.966Z,1.30
2019-01-10T20:35:03.125Z,1.20
2019-01-10T20:37:36.886Z,1.20
2019-01-10T20:40:12.193Z,1.20
2019-01-10T20:42:45.823Z,1.30
2019-01-10T20:45:21.069Z,1.30
2019-01-10T20:47:55.414Z,1.30
2019-01-10T20:50:28.672Z,1.30
2019-01-10T20:53:02.365Z,1.30
2019-01-10T20:55:36.606Z,1.20
2019-01-10T20:58:13.228Z,1.20
2019-01-10T21:00:47.173Z,1.30
2019-01-10T21:03:21.487Z,1.30
2019-01-10T21:05:55.101Z,1.30
2019-01-10T21:08:28.625Z,1.20
2019-01-10T21:11:04.237Z,1.10
2019-01-10T21:13:38.811Z,1.20
2019-01-10T21:16:12.007Z,1.10
2019-01-10T21:18:46.629Z,1.20
2019-01-10T21:21:19.557Z,1.00
2019-01-10T21:23:53.193Z,1.10
2019-01-10T21:26:29.588Z,1.10
2019-01-10T21:29:03.158Z,1.10
2019-01-10T21:31:37.007Z,1.10
2019-01-10T21:34:10.605Z,1.10
2019-01-10T21:36:43.885Z,1.20
2019-01-10T21:39:17.705Z,1.20
2019-01-10T21:41:51.956Z,1.20
2019-01-10T21:44:24.250Z,1.30
2019-01-10T21:46:57.063Z,1.40
2019-01-10T21:49:29.653Z,1.40
2019-01-10T21:52:01.482Z,1.30
2019-01-10T21:54:34.995Z,1.30
2019-01-10T21:57:06.791Z,1.30
2019-01-10T21:59:38.103Z,1.30
2019-01-10T22:02:09.328Z,1.30
2019-01-10T22:04:40.145Z,1.40
2019-01-10T22:07:11.819Z,1.40
2019-01-10T22:09:43.032Z,1.40
2019-01-10T22:12:14.091Z,1.20
2019-01-10T22:14:45.366Z,1.20
2019-01-10T22:17:16.547Z,1.10
2019-01-10T22:19:47.634Z,1.20
2019-01-10T22:22:19.551Z,1.30
2019-01-10T22:24:50.160Z,1.10
2019-01-10T22:27:20.943Z,1.10
2019-01-10T22:29:51.746Z,1.10
2019-01-10T22:32:22.245Z,1.30
2019-01-10T22:34:53.183Z,1.20
2019-01-10T22:37:28.963Z,1.20
2019-01-10T22:39:57.125Z,1.10
2019-01-10T22:42:27.902Z,1.20
2019-01-10T22:44:58.806Z,1.30
2019-01-10T22:47:29.945Z,1.00
2019-01-10T22:50:03.532Z,1.20
2019-01-10T22:52:34.590Z,1.30
2019-01-10T22:55:06.148Z,1.30
2019-01-10T22:57:37.898Z,1.20
2019-01-10T23:00:27.963Z,1.20
2019-01-10T23:03:08.453Z,1.10
2019-01-10T23:05:44.224Z,1.20
2019-01-10T23:08:14.861Z,1.10
2019-01-10T23:10:45.506Z,1.10
2019-01-10T23:13:16.623Z,1.20
2019-01-10T23:15:48.298Z,1.20
2019-01-10T23:18:19.154Z,1.30
2019-01-10T23:20:57.635Z,1.30
2019-01-10T23:23:29.432Z,1.30
2019-01-10T23:26:00.511Z,1.20
2019-01-10T23:28:31.288Z,1.30
2019-01-10T23:31:02.822Z,1.30
2019-01-10T23:33:33.339Z,1.30
2019-01-10T23:36:05.273Z,1.30
2019-01-10T23:38:36.612Z,1.30
2019-01-10T23:41:07.966Z,1.30
2019-01-10T23:43:40.192Z,1.30
2019-01-10T23:46:10.637Z,1.30
2019-01-10T23:48:41.265Z,1.40
2019-01-10T23:51:12.033Z,1.40
2019-01-10T23:53:43.994Z,1.40
2019-01-10T23:56:14.573Z,1.40
2019-01-10T23:58:45.263Z,1.50
